Aviation Digital Data Service (ADDS)

Output produced by METARs form (0958 UTC 19 January 2019)
found at http://www.aviationweather.gov/metar/data/
 
KBML 190952Z AUTO 35006KT 10SM SCT021 M13/M17 A3017 RMK AO2 SLP239 T11331172
KCON 190951Z AUTO 35009KT 10SM SCT042 M06/M11 A3021 RMK AO2 SLP237 T10611106
KCON 190852Z 1909/2006 33004KT P6SM BKN050 
     FM200100 04007KT 1SM -SN OVC025
       
KAFN 190952Z AUTO 36003KT 10SM OVC036 M04/M08 A3015 RMK AO2 SLP227 T10391083
KEEN 190956Z AUTO 36010KT 10SM BKN042 M04/M08 A3016 RMK AO2 SLP236 T10391078 FZRANO $
KLCI 190856Z AUTO 30005KT 10SM BKN041 M06/M11 A3019 RMK AO2 SLP243 T10611111 51030 FZRANO $
KLEB 190953Z AUTO 36007KT 10SM OVC033 M06/M13 A3021 RMK AO2 SLP242 T10611128
KLEB 190852Z 1909/2006 36004KT P6SM OVC040 
     FM200200 VRB03KT 1SM -SN OVC025
       
KMHT 190953Z 36009KT 10SM FEW047 BKN200 M04/M10 A3020 RMK AO2 SLP244 T10391100
KMHT 190852Z 1909/2006 30007KT P6SM FEW040 BKN250 
     FM191200 36005KT P6SM OVC150 
     FM200100 04007KT 1SM -SN OVC025
       
KASH 190956Z AUTO 34005KT 10SM CLR M04/M08 A3021 RMK AO2 SLP241 T10441083 FZRANO $
KPSM 190856Z 30007KT 10SM SCT040 BKN250 M03/M08 A3017 RMK AO2A SLP220 T10321085 52025
KPSM 190852Z 1909/2006 28005KT P6SM SCT040 BKN250 
     FM191300 35007KT P6SM OVC150 
     FM200200 05007KT 1SM -SN OVC025
       
KDAW 190951Z AUTO 34006KT 10SM CLR M06/M10 A3020 RMK AO2 SLP226 T10561100
KHIE 190952Z AUTO 36005KT 10SM OVC027 M11/M15 A3019 RMK AO2 SLP243 T11111150
KHIE 190852Z 1909/2006 29005KT P6SM FEW025 OVC040 
     FM200200 VRB03KT 1SM -SN OVC025